KGMJ

Details ICAO KGMJ
Name GROVE MUNI
Region United States
Timezone America/Chicago (UTC-5.0)
Plans Departing 3
Arriving 2
Stats Elevation 830 ft / 253 m (AMSL)
Location 36.606713° -94.738569°
Runways 1
Magnetic Variation 1.834° E
Sunrise 2018-05-22 11:08:13 UTC / 2018-05-22 06:08:13 Local
Sunset 2018-05-23 01:25:55 UTC / 2018-05-22 20:25:55 Local
Advertisement - Login to hide

Runways

ID Width Length Bearing (true) Bearing (mag) Surface Threshold Offset Overrun Length
18 75 ft / 23 m 5,262 ft / 1,604 m 179.93° 178.10° Asphalt 0 ft / 0 m 0 ft / 0 m
36 75 ft / 23 m 5,262 ft / 1,604 m 359.93° 358.10° Asphalt 52 ft / 16 m 0 ft / 0 m

Map

Weather


0- 5 10 15 20 25 30 35+ Temperature / ° C

Clouds and Precipitation
Forecast for 2018-05-22 12:00 UTC. Updated 3 hours ago

Ground ~20,000 ft ~40,000 ft Winds

METAR

KGMJ 221435Z AUTO 00000KT 10SM CLR 25/21 A3007 RMK AO2 LTG DSNT SE

TAF

Not found

Frequencies

Recorded 119.02 MHz AWOS 3
Unicom 122.80 MHz CTAF/UNICOM
Warning: Do not use this data for real-world aviation or navigation. No guarantee of current accuracy is given.